Time;durP1;ratioP1;P1;durP2;ratioP2;P2;SDS_P1;SDS_P2;PMS_P1;PMS_P2;Temp;Humidity;BMP_temperature;BMP_pressure;BME280_temperature;BME280_humidity;BME280_pressure;Samples;Min_cycle;Max_cycle;Signal;HPM_P1;HPM_P2
2022/07/30 00:02:12;;;;;;;3.03;2.00;;;19.80;59.90;;;;;;5009707;28;20037;-82
2022/07/30 00:04:38;;;;;;;3.90;1.92;;;19.70;60.40;;;;;;5011472;28;20390;-82
2022/07/30 00:07:04;;;;;;;4.15;2.30;;;19.90;60.30;;;;;;5011412;28;20117;-83
2022/07/30 00:09:29;;;;;;;4.03;2.17;;;19.90;60.00;;;;;;5011328;28;20406;-83
2022/07/30 00:11:55;;;;;;;3.72;2.10;;;20.00;59.70;;;;;;5011422;28;20025;-82
2022/07/30 00:14:20;;;;;;;2.40;1.80;;;20.00;59.50;;;;;;5011280;28;20398;-80
2022/07/30 00:16:46;;;;;;;4.05;2.10;;;20.00;59.90;;;;;;5011305;28;20029;-82
2022/07/30 00:19:12;;;;;;;4.70;1.90;;;19.80;60.30;;;;;;5009941;28;20109;-82
2022/07/30 00:21:37;;;;;;;3.53;2.10;;;19.70;60.70;;;;;;5011181;28;20427;-80
2022/07/30 00:24:03;;;;;;;4.53;2.53;;;19.70;61.30;;;;;;5011088;28;20047;-82
2022/07/30 00:26:29;;;;;;;5.03;2.30;;;19.70;61.10;;;;;;5011039;28;20522;-80
2022/07/30 00:28:55;;;;;;;6.72;2.13;;;19.70;61.10;;;;;;5011006;28;20069;-82
2022/07/30 00:31:21;;;;;;;3.53;2.30;;;19.60;61.40;;;;;;5011052;28;20075;-81
2022/07/30 00:33:46;;;;;;;3.22;1.73;;;19.60;61.70;;;;;;5010932;28;20033;-79
2022/07/30 00:36:12;;;;;;;6.63;2.25;;;19.60;61.80;;;;;;5009735;28;20030;-81
2022/07/30 00:38:37;;;;;;;4.60;2.08;;;19.70;61.60;;;;;;5010864;28;20029;-80
2022/07/30 00:41:03;;;;;;;3.80;2.15;;;19.70;61.60;;;;;;5010921;28;20026;-81
2022/07/30 00:43:28;;;;;;;3.17;2.15;;;19.70;61.70;;;;;;5010767;28;20022;-81
2022/07/30 00:45:54;;;;;;;3.83;1.98;;;19.70;61.80;;;;;;5010884;28;20086;-81
2022/07/30 00:48:19;;;;;;;5.05;2.30;;;19.80;61.30;;;;;;5009448;28;20029;-82
2022/07/30 00:50:45;;;;;;;2.60;2.40;;;19.70;61.20;;;;;;5010770;28;20040;-80
2022/07/30 00:53:11;;;;;;;2.70;2.10;;;19.80;61.30;;;;;;5010741;28;20049;-82
2022/07/30 00:55:37;;;;;;;6.00;2.22;;;19.80;60.90;;;;;;5010643;28;20116;-82
2022/07/30 00:58:02;;;;;;;4.57;2.42;;;19.90;60.90;;;;;;5010702;28;20046;-81
2022/07/30 01:00:28;;;;;;;2.50;2.22;;;19.90;61.00;;;;;;5010329;28;20057;-81
2022/07/30 01:02:54;;;;;;;2.88;1.92;;;20.00;60.50;;;;;;5010382;28;20030;-81
2022/07/30 01:05:19;;;;;;;3.45;1.98;;;20.00;60.50;;;;;;5010566;28;20026;-81
2022/07/30 01:07:45;;;;;;;2.42;2.22;;;19.90;60.80;;;;;;5010455;28;20053;-79
2022/07/30 01:10:13;;;;;;;3.08;1.85;;;19.90;61.00;;;;;;5010492;28;20113;-80
2022/07/30 01:12:39;;;;;;;3.58;2.08;;;20.00;60.80;;;;;;5010414;28;20025;-81
2022/07/30 01:15:06;;;;;;;2.83;2.03;;;20.00;60.90;;;;;;5009322;28;20042;-79
2022/07/30 01:17:34;;;;;;;3.05;2.05;;;20.00;61.20;;;;;;5010343;28;20155;-81
2022/07/30 01:20:05;;;;;;;5.53;2.13;;;20.00;60.80;;;;;;5010335;28;20052;-81
2022/07/30 01:22:43;;;;;;;3.75;2.60;;;20.00;60.20;;;;;;5010250;28;20029;-82
2022/07/30 01:25:23;;;;;;;8.35;2.22;;;20.00;60.40;;;;;;5010279;28;20496;-81
2022/07/30 01:27:58;;;;;;;4.18;2.42;;;20.10;59.60;;;;;;5010212;28;20101;-81
2022/07/30 01:30:27;;;;;;;6.25;2.53;;;20.10;59.60;;;;;;5010311;28;20033;-79
2022/07/30 01:32:55;;;;;;;4.20;2.20;;;20.10;58.30;;;;;;5010355;28;20030;-82
2022/07/30 01:35:23;;;;;;;4.93;2.45;;;20.00;59.10;;;;;;5010011;28;20034;-81
2022/07/30 01:37:54;;;;;;;4.97;2.30;;;20.00;59.00;;;;;;5010080;28;20983;-82
2022/07/30 01:40:21;;;;;;;3.50;2.10;;;20.00;58.60;;;;;;5010122;28;20028;-78
2022/07/30 01:42:52;;;;;;;3.67;2.58;;;20.00;58.40;;;;;;5010388;28;20057;-80
2022/07/30 01:45:18;;;;;;;4.30;2.15;;;20.00;58.80;;;;;;5010075;28;20079;-74
2022/07/30 01:47:45;;;;;;;3.72;2.25;;;20.00;59.10;;;;;;5009976;28;20109;-76
2022/07/30 01:50:13;;;;;;;3.38;2.22;;;20.00;59.10;;;;;;5009880;28;20045;-75
2022/07/30 01:52:42;;;;;;;5.68;2.10;;;20.00;58.90;;;;;;5009963;28;20022;-74
2022/07/30 01:55:10;;;;;;;3.97;1.92;;;20.00;59.20;;;;;;5009708;28;20466;-73
2022/07/30 01:57:37;;;;;;;2.28;1.75;;;20.00;59.40;;;;;;5009786;28;20083;-74
2022/07/30 02:00:05;;;;;;;6.68;2.53;;;19.90;59.80;;;;;;5009751;28;20022;-74
2022/07/30 02:02:33;;;;;;;3.83;2.75;;;19.90;60.20;;;;;;5009616;28;20494;-76
2022/07/30 02:04:59;;;;;;;3.50;2.35;;;19.90;60.00;;;;;;5009681;28;20075;-73
2022/07/30 02:07:34;;;;;;;3.42;2.10;;;19.80;60.10;;;;;;5010023;28;20034;-80
2022/07/30 02:10:12;;;;;;;4.90;2.63;;;19.80;60.40;;;;;;5009909;28;20514;-79
2022/07/30 02:12:45;;;;;;;6.10;2.60;;;19.70;61.00;;;;;;5009750;28;20122;-80
2022/07/30 02:15:36;;;;;;;4.10;2.20;;;19.70;61.60;;;;;;5009577;28;20041;-80
2022/07/30 02:18:14;;;;;;;2.72;2.22;;;19.60;61.70;;;;;;5014733;28;20032;-80
2022/07/30 02:20:53;;;;;;;2.40;2.20;;;19.60;62.20;;;;;;5011184;28;20479;-79
2022/07/30 02:23:19;;;;;;;2.88;2.40;;;19.60;62.50;;;;;;5009457;28;20076;-78
2022/07/30 02:25:48;;;;;;;6.55;2.63;;;19.50;62.90;;;;;;5010252;28;20389;-81
2022/07/30 02:28:15;;;;;;;6.03;2.03;;;19.40;63.50;;;;;;5012895;28;20482;-80
2022/07/30 02:30:53;;;;;;;4.43;1.90;;;19.30;63.50;;;;;;5012759;28;20026;-81
2022/07/30 02:33:23;;;;;;;4.60;2.90;;;19.30;63.90;;;;;;5011471;28;20032;-81
2022/07/30 02:35:50;;;;;;;4.05;2.30;;;19.10;64.30;;;;;;5012575;28;20125;-80
2022/07/30 02:38:18;;;;;;;5.18;2.30;;;19.00;64.80;;;;;;5012841;28;20022;-80
2022/07/30 02:40:44;;;;;;;2.42;2.13;;;18.80;65.20;;;;;;5012656;28;20062;-80
2022/07/30 02:43:13;;;;;;;2.22;2.03;;;18.70;65.60;;;;;;5012628;28;20097;-80
2022/07/30 02:45:40;;;;;;;2.35;2.08;;;18.60;66.10;;;;;;5012862;28;20033;-80
2022/07/30 02:48:07;;;;;;;3.03;1.95;;;18.50;66.30;;;;;;5011306;28;20413;-81
2022/07/30 02:50:34;;;;;;;4.53;2.72;;;18.50;66.70;;;;;;5012397;28;20018;-80
2022/07/30 02:53:01;;;;;;;7.97;2.65;;;18.50;66.80;;;;;;5012408;28;20344;-80
2022/07/30 02:55:30;;;;;;;5.00;2.50;;;18.50;67.30;;;;;;5012261;28;20538;-80
2022/07/30 02:57:56;;;;;;;4.47;2.38;;;18.40;66.80;;;;;;5012267;28;20076;-79
2022/07/30 03:00:25;;;;;;;3.63;2.22;;;18.40;67.00;;;;;;5012336;28;20026;-81
2022/07/30 03:02:54;;;;;;;3.95;2.15;;;18.40;66.70;;;;;;5012347;28;20026;-81
2022/07/30 03:05:20;;;;;;;3.92;2.30;;;18.40;67.00;;;;;;5012136;28;20024;-81
2022/07/30 03:07:46;;;;;;;7.50;2.40;;;18.40;67.00;;;;;;5012358;28;20040;-81
2022/07/30 03:10:13;;;;;;;4.30;2.40;;;18.30;67.60;;;;;;5012157;28;20101;-80
2022/07/30 03:12:43;;;;;;;6.45;2.38;;;18.30;67.60;;;;;;5012146;28;20390;-80
2022/07/30 03:15:09;;;;;;;2.35;2.00;;;18.20;67.80;;;;;;5010755;28;20037;-80
2022/07/30 03:17:39;;;;;;;7.75;2.53;;;18.20;68.20;;;;;;5012020;28;20061;-80
2022/07/30 03:20:09;;;;;;;2.17;1.92;;;18.20;68.30;;;;;;5012080;28;20018;-81
2022/07/30 03:22:40;;;;;;;6.07;2.10;;;18.20;67.80;;;;;;5012146;28;20022;-80
2022/07/30 03:25:07;;;;;;;4.45;2.20;;;18.10;68.20;;;;;;5011985;28;20034;-80
2022/07/30 03:27:36;;;;;;;5.90;2.65;;;18.10;67.70;;;;;;5011846;28;20022;-79
2022/07/30 03:30:04;;;;;;;5.38;3.00;;;18.10;67.70;;;;;;5011837;28;20210;-78
2022/07/30 03:32:30;;;;;;;4.70;2.47;;;18.00;68.00;;;;;;5011769;28;20022;-79
2022/07/30 03:34:57;;;;;;;3.88;2.55;;;17.90;68.40;;;;;;5011707;28;20119;-79
2022/07/30 03:37:26;;;;;;;4.10;2.60;;;17.90;68.80;;;;;;5010882;28;20034;-80
2022/07/30 03:39:52;;;;;;;5.38;2.42;;;18.00;68.20;;;;;;5011689;28;20049;-79
2022/07/30 03:42:19;;;;;;;6.00;2.00;;;17.90;68.50;;;;;;5011688;28;20054;-77
2022/07/30 03:44:46;;;;;;;2.90;2.30;;;17.90;68.20;;;;;;5011599;28;20101;-78
2022/07/30 03:47:13;;;;;;;3.28;2.45;;;17.90;68.50;;;;;;5011703;28;20410;-79
2022/07/30 03:49:39;;;;;;;4.30;2.67;;;17.80;68.50;;;;;;5011580;28;20025;-78
2022/07/30 03:52:05;;;;;;;4.70;2.40;;;17.80;68.80;;;;;;5011546;28;20482;-77
2022/07/30 03:54:34;;;;;;;6.20;2.67;;;17.80;68.90;;;;;;5011487;28;20062;-80
2022/07/30 03:57:02;;;;;;;4.63;2.50;;;17.80;68.40;;;;;;5011237;28;20398;-78
2022/07/30 03:59:28;;;;;;;3.70;2.45;;;17.80;68.50;;;;;;5011428;28;20053;-72
2022/07/30 04:01:58;;;;;;;2.67;2.47;;;17.70;68.70;;;;;;5011412;28;20527;-72
2022/07/30 04:04:23;;;;;;;5.38;2.90;;;17.60;69.00;;;;;;5011378;28;20018;-71
2022/07/30 04:06:49;;;;;;;4.65;2.55;;;17.50;69.60;;;;;;5011361;28;20036;-71
2022/07/30 04:09:14;;;;;;;8.60;2.80;;;17.40;69.90;;;;;;5011229;28;20104;-71
2022/07/30 04:11:40;;;;;;;6.07;2.67;;;17.30;70.40;;;;;;5011222;28;20036;-71
2022/07/30 04:14:05;;;;;;;4.40;2.85;;;17.20;70.60;;;;;;5011185;28;20022;-71
2022/07/30 04:16:43;;;;;;;4.78;3.03;;;17.20;70.70;;;;;;5011145;28;20041;-71
2022/07/30 04:19:15;;;;;;;5.43;3.28;;;17.30;71.00;;;;;;5011098;28;20053;-71
2022/07/30 04:21:41;;;;;;;5.18;2.78;;;17.20;71.10;;;;;;5011304;28;20031;-71
2022/07/30 04:24:09;;;;;;;6.07;2.88;;;17.10;71.50;;;;;;5011011;28;20033;-71
2022/07/30 04:26:36;;;;;;;5.13;3.30;;;17.20;71.50;;;;;;5011063;28;20090;-71
2022/07/30 04:29:04;;;;;;;3.72;2.83;;;17.20;71.40;;;;;;5011022;28;20022;-71
2022/07/30 04:31:34;;;;;;;5.95;2.83;;;17.20;71.40;;;;;;5010943;28;20022;-74
2022/07/30 04:34:03;;;;;;;4.32;3.05;;;17.20;71.40;;;;;;5010975;28;20071;-71
2022/07/30 04:36:30;;;;;;;9.70;3.40;;;17.20;71.20;;;;;;5010748;28;20126;-72
2022/07/30 04:38:56;;;;;;;6.85;3.92;;;17.10;71.40;;;;;;5010821;28;20029;-71
2022/07/30 04:41:22;;;;;;;8.65;4.30;;;17.00;71.80;;;;;;5010758;28;20113;-71
2022/07/30 04:43:48;;;;;;;7.57;3.65;;;16.90;72.20;;;;;;5010847;28;20062;-71
2022/07/30 04:46:13;;;;;;;7.35;3.45;;;16.90;72.80;;;;;;5010404;28;20030;-71
2022/07/30 04:48:39;;;;;;;5.75;3.90;;;16.90;72.70;;;;;;5010615;28;20494;-71
2022/07/30 04:51:12;;;;;;;4.88;3.13;;;16.90;72.70;;;;;;5010661;28;20037;-71
2022/07/30 04:53:39;;;;;;;9.13;4.15;;;17.00;72.40;;;;;;5010725;28;20439;-71
2022/07/30 04:56:05;;;;;;;6.88;4.00;;;17.00;72.10;;;;;;5010484;28;20071;-72
2022/07/30 04:58:33;;;;;;;6.13;3.53;;;17.10;72.00;;;;;;5010546;28;20046;-72
2022/07/30 05:01:00;;;;;;;5.13;3.80;;;17.00;72.00;;;;;;5010520;28;20049;-72
2022/07/30 05:03:27;;;;;;;7.05;4.00;;;17.10;72.00;;;;;;5010465;28;20052;-72
2022/07/30 05:05:55;;;;;;;6.38;3.70;;;17.20;71.80;;;;;;5010406;28;20071;-73
2022/07/30 05:08:22;;;;;;;9.00;4.03;;;17.30;71.30;;;;;;5010409;28;20374;-72
2022/07/30 05:10:47;;;;;;;7.20;3.75;;;17.40;71.10;;;;;;5010367;28;20117;-72
2022/07/30 05:13:13;;;;;;;4.05;3.20;;;17.50;71.30;;;;;;5010199;28;20085;-72
2022/07/30 05:15:39;;;;;;;4.43;3.58;;;17.50;70.80;;;;;;5010287;28;20045;-72
2022/07/30 05:18:05;;;;;;;10.40;3.55;;;17.70;70.40;;;;;;5010398;28;20036;-72
2022/07/30 05:20:31;;;;;;;7.53;3.88;;;17.60;69.90;;;;;;5010187;28;20109;-72
2022/07/30 05:22:56;;;;;;;4.93;3.60;;;17.60;70.20;;;;;;5010213;28;20026;-72
2022/07/30 05:25:22;;;;;;;7.50;3.28;;;17.80;70.00;;;;;;5010197;28;20026;-72
2022/07/30 05:27:47;;;;;;;6.63;3.30;;;17.90;69.70;;;;;;5010286;28;20037;-72
2022/07/30 05:30:13;;;;;;;5.22;3.55;;;17.90;69.50;;;;;;5010187;28;20071;-71
2022/07/30 05:32:39;;;;;;;5.88;3.30;;;18.10;69.30;;;;;;5009850;28;20466;-73
2022/07/30 05:35:04;;;;;;;9.10;3.42;;;18.20;68.90;;;;;;5009886;28;20037;-73
2022/07/30 05:37:31;;;;;;;3.70;3.25;;;18.30;68.60;;;;;;5010137;28;20035;-72
2022/07/30 05:39:57;;;;;;;5.78;3.40;;;18.40;68.40;;;;;;5009873;28;20030;-70
2022/07/30 05:42:22;;;;;;;4.60;3.03;;;18.50;68.30;;;;;;5010069;28;20026;-72
2022/07/30 05:44:48;;;;;;;4.22;2.72;;;18.70;68.10;;;;;;5009906;28;20075;-72
2022/07/30 05:47:13;;;;;;;4.25;2.95;;;18.80;67.70;;;;;;5009949;28;20033;-72
2022/07/30 05:49:39;;;;;;;6.63;3.35;;;18.80;67.50;;;;;;5009840;28;20034;-72
2022/07/30 05:52:05;;;;;;;3.75;2.85;;;18.90;67.20;;;;;;5009787;28;20030;-72
2022/07/30 05:54:30;;;;;;;4.72;2.72;;;19.00;67.00;;;;;;5009584;28;20030;-72
2022/07/30 05:56:56;;;;;;;6.97;3.60;;;19.10;66.80;;;;;;5008454;28;20056;-72
2022/07/30 05:59:21;;;;;;;4.45;2.92;;;19.30;66.20;;;;;;5009948;28;20102;-71
2022/07/30 06:01:47;;;;;;;4.70;3.25;;;19.40;65.60;;;;;;5012203;28;20108;-72
2022/07/30 06:04:12;;;;;;;4.45;3.10;;;19.50;65.30;;;;;;5013196;28;20087;-73
2022/07/30 06:06:38;;;;;;;8.20;3.33;;;19.60;64.70;;;;;;5013047;28;20034;-71
2022/07/30 06:09:03;;;;;;;6.00;3.70;;;19.70;64.50;;;;;;5013103;28;20078;-72
2022/07/30 06:11:29;;;;;;;5.95;3.47;;;19.80;64.10;;;;;;5013142;28;20386;-72
2022/07/30 06:13:54;;;;;;;7.70;3.00;;;19.90;63.80;;;;;;5011744;28;20417;-71
2022/07/30 06:16:20;;;;;;;4.75;3.17;;;20.10;63.30;;;;;;5012994;28;20034;-71
2022/07/30 06:18:45;;;;;;;5.65;3.58;;;20.20;62.70;;;;;;5012937;28;20022;-71
2022/07/30 06:21:11;;;;;;;5.93;3.70;;;20.30;62.20;;;;;;5012509;28;20030;-72
2022/07/30 06:23:36;;;;;;;5.28;3.08;;;20.30;61.40;;;;;;5012647;28;20030;-71
2022/07/30 06:26:02;;;;;;;5.88;3.95;;;20.40;60.70;;;;;;5012690;28;20022;-71
2022/07/30 06:28:28;;;;;;;7.45;3.15;;;20.50;60.50;;;;;;5012560;28;20121;-71
2022/07/30 06:30:53;;;;;;;7.35;3.65;;;20.50;60.70;;;;;;5012651;28;20040;-71
2022/07/30 06:33:19;;;;;;;5.78;3.50;;;20.70;59.90;;;;;;5012641;28;20033;-72
2022/07/30 06:35:44;;;;;;;6.05;3.35;;;20.80;59.30;;;;;;5012415;28;20041;-71
2022/07/30 06:38:10;;;;;;;6.43;3.85;;;20.90;59.50;;;;;;5012459;28;20036;-71
2022/07/30 06:40:35;;;;;;;9.23;4.03;;;20.90;59.20;;;;;;5011939;28;20069;-71
2022/07/30 06:43:02;;;;;;;4.95;3.00;;;20.90;58.10;;;;;;5010841;28;20045;-71
2022/07/30 06:45:28;;;;;;;8.15;3.78;;;21.00;57.50;;;;;;5012373;28;20030;-72
2022/07/30 06:47:57;;;;;;;12.52;3.70;;;21.10;56.90;;;;;;5012303;28;20033;-72
2022/07/30 06:50:23;;;;;;;6.78;3.95;;;21.20;55.80;;;;;;5012182;28;20593;-71
2022/07/30 06:52:49;;;;;;;9.23;3.88;;;21.10;56.10;;;;;;5012094;28;20038;-72
2022/07/30 06:55:14;;;;;;;6.32;3.10;;;21.20;55.80;;;;;;5012023;28;20046;-72
2022/07/30 06:57:40;;;;;;;8.52;3.58;;;21.20;55.90;;;;;;5011688;28;20387;-72
2022/07/30 07:00:07;;;;;;;7.35;3.88;;;21.30;55.30;;;;;;5011999;28;20067;-72
2022/07/30 07:02:33;;;;;;;5.47;3.80;;;21.40;55.00;;;;;;5011965;28;20048;-72
2022/07/30 07:04:58;;;;;;;5.65;3.40;;;21.30;55.30;;;;;;5012136;28;20030;-72
2022/07/30 07:07:24;;;;;;;5.03;3.28;;;21.30;53.90;;;;;;5012019;28;20226;-72
2022/07/30 07:09:49;;;;;;;4.68;3.05;;;21.30;53.30;;;;;;5012068;28;20022;-72
2022/07/30 07:12:15;;;;;;;8.52;3.50;;;21.20;54.20;;;;;;5010632;28;20034;-75
2022/07/30 07:14:41;;;;;;;6.95;2.88;;;21.20;55.00;;;;;;5011677;28;20034;-74
2022/07/30 07:17:07;;;;;;;13.65;4.07;;;21.30;54.10;;;;;;5011897;28;20454;-74
2022/07/30 07:19:33;;;;;;;4.53;3.00;;;21.50;53.00;;;;;;5011748;28;20025;-74
2022/07/30 07:21:58;;;;;;;7.15;3.00;;;21.60;51.20;;;;;;5011476;28;20470;-73
2022/07/30 07:24:24;;;;;;;9.30;2.78;;;21.50;50.10;;;;;;5011719;28;20021;-74
2022/07/30 07:26:49;;;;;;;4.15;2.67;;;21.80;50.60;;;;;;5011869;28;20098;-74
2022/07/30 07:29:15;;;;;;;4.90;3.30;;;21.90;50.50;;;;;;5011709;28;20096;-74
2022/07/30 07:31:41;;;;;;;6.65;2.88;;;22.10;49.40;;;;;;5011590;28;20033;-74
2022/07/30 07:34:06;;;;;;;7.18;3.08;;;21.90;48.90;;;;;;5011537;28;20480;-74
2022/07/30 07:36:34;;;;;;;7.15;3.05;;;21.80;49.50;;;;;;5011520;28;20086;-74
2022/07/30 07:38:59;;;;;;;4.47;2.50;;;21.90;49.30;;;;;;5011544;28;20032;-74
2022/07/30 07:41:25;;;;;;;7.03;2.20;;;22.00;49.40;;;;;;5011532;28;20112;-73
2022/07/30 07:43:50;;;;;;;10.43;2.47;;;22.10;45.10;;;;;;5011063;28;20022;-74
2022/07/30 07:46:16;;;;;;;3.65;2.30;;;22.10;42.10;;;;;;5011024;28;20026;-73
2022/07/30 07:48:43;;;;;;;5.72;1.85;;;22.10;40.70;;;;;;5010664;28;20040;-74
2022/07/30 07:51:08;;;;;;;3.15;1.90;;;22.20;40.50;;;;;;5011489;28;20034;-73
2022/07/30 07:53:34;;;;;;;4.38;1.85;;;22.20;40.80;;;;;;5011214;28;20026;-78
2022/07/30 07:56:00;;;;;;;5.63;2.47;;;22.20;42.00;;;;;;5011052;28;20042;-74
2022/07/30 07:58:25;;;;;;;2.85;1.70;;;22.40;41.90;;;;;;5010908;28;20079;-73
2022/07/30 08:00:51;;;;;;;3.95;1.70;;;22.40;42.20;;;;;;5011175;28;20109;-76
2022/07/30 08:03:17;;;;;;;7.75;1.98;;;22.60;42.20;;;;;;5010855;28;20096;-74
2022/07/30 08:05:42;;;;;;;3.45;1.80;;;22.90;41.90;;;;;;5011083;28;20042;-74
2022/07/30 08:08:08;;;;;;;4.82;1.95;;;23.10;41.30;;;;;;5011305;28;20051;-75
2022/07/30 08:10:33;;;;;;;5.60;1.60;;;23.20;40.80;;;;;;5011000;28;20026;-74
2022/07/30 08:13:01;;;;;;;3.30;1.58;;;23.40;40.40;;;;;;5011662;28;20030;-74
2022/07/30 08:15:26;;;;;;;7.35;2.05;;;23.40;40.10;;;;;;5013325;28;20476;-74
2022/07/30 08:17:52;;;;;;;7.65;1.63;;;23.40;39.70;;;;;;5009752;28;20057;-73
2022/07/30 08:20:17;;;;;;;3.55;1.50;;;23.40;37.80;;;;;;5010876;28;20022;-73
2022/07/30 08:22:43;;;;;;;2.83;1.00;;;23.20;36.30;;;;;;5010827;28;20474;-74
2022/07/30 08:25:09;;;;;;;2.35;1.40;;;23.10;35.00;;;;;;5010301;28;20033;-74
2022/07/30 08:27:35;;;;;;;5.20;1.27;;;23.30;35.10;;;;;;5010678;28;20033;-75
2022/07/30 08:30:08;;;;;;;3.33;1.38;;;23.30;34.90;;;;;;5010577;28;20022;-74
2022/07/30 08:32:34;;;;;;;3.65;1.40;;;23.20;35.60;;;;;;5010630;28;20479;-72
2022/07/30 08:35:00;;;;;;;4.95;1.20;;;23.30;36.20;;;;;;5010382;28;20033;-72
2022/07/30 08:37:26;;;;;;;4.32;1.67;;;23.40;35.60;;;;;;5010387;28;20089;-75
2022/07/30 08:39:52;;;;;;;5.65;1.40;;;23.50;35.60;;;;;;5010259;28;20033;-74
2022/07/30 08:42:18;;;;;;;2.47;1.40;;;23.40;35.50;;;;;;5010184;28;20026;-75
2022/07/30 08:44:45;;;;;;;3.10;1.50;;;23.50;35.10;;;;;;5010061;28;20079;-75
2022/07/30 08:47:14;;;;;;;4.10;1.30;;;23.50;34.90;;;;;;5008950;28;20396;-75
2022/07/30 08:49:40;;;;;;;4.88;1.60;;;23.50;35.80;;;;;;5010539;28;20026;-75
2022/07/30 08:52:07;;;;;;;2.42;1.10;;;23.50;35.20;;;;;;5010173;28;20216;-75
2022/07/30 08:54:34;;;;;;;2.75;1.38;;;23.50;35.50;;;;;;5010390;28;20056;-75
2022/07/30 08:56:59;;;;;;;3.58;1.50;;;23.40;35.00;;;;;;5010057;28;20050;-77
2022/07/30 08:59:26;;;;;;;2.33;0.90;;;23.20;35.20;;;;;;5009139;28;20355;-79
2022/07/30 09:01:51;;;;;;;3.85;1.50;;;23.40;35.80;;;;;;5010274;28;20046;-77
2022/07/30 09:04:17;;;;;;;2.45;1.35;;;23.50;36.60;;;;;;5010056;28;20478;-76
2022/07/30 09:06:43;;;;;;;3.13;1.35;;;23.40;35.70;;;;;;5010349;28;20026;-77
2022/07/30 09:09:09;;;;;;;5.35;1.15;;;23.30;35.90;;;;;;5010389;28;20100;-76
2022/07/30 09:11:35;;;;;;;2.40;1.50;;;23.30;35.70;;;;;;5010071;28;20058;-77
2022/07/30 09:14:12;;;;;;;2.65;1.40;;;23.20;35.30;;;;;;5010558;28;20041;-77
2022/07/30 09:16:38;;;;;;;3.10;1.55;;;23.30;35.80;;;;;;5010476;28;20475;-77
2022/07/30 09:19:21;;;;;;;2.80;1.80;;;23.50;36.20;;;;;;5010560;28;20041;-76
2022/07/30 09:21:58;;;;;;;6.07;1.70;;;23.40;37.00;;;;;;5010139;28;20400;-77
2022/07/30 09:24:24;;;;;;;3.90;1.60;;;23.50;37.20;;;;;;5010326;28;20379;-76
2022/07/30 09:26:52;;;;;;;3.00;1.30;;;23.60;37.10;;;;;;5010054;28;20490;-76
2022/07/30 09:29:22;;;;;;;5.28;1.48;;;23.80;37.00;;;;;;5010340;28;20374;-75
2022/07/30 09:31:57;;;;;;;3.47;1.63;;;23.90;36.40;;;;;;5010318;28;20022;-76
2022/07/30 09:34:34;;;;;;;4.15;1.77;;;24.00;36.40;;;;;;5010359;28;20379;-77
2022/07/30 09:37:10;;;;;;;2.17;1.40;;;23.80;36.60;;;;;;5013269;28;20171;-77
2022/07/30 09:39:40;;;;;;;3.22;1.50;;;23.70;37.30;;;;;;5013423;28;20053;-76
2022/07/30 09:42:23;;;;;;;5.35;1.95;;;23.50;37.60;;;;;;5013832;28;20034;-77
2022/07/30 09:44:49;;;;;;;3.00;1.42;;;23.60;38.10;;;;;;5013824;28;20130;-78
2022/07/30 09:47:32;;;;;;;2.70;1.42;;;23.90;37.30;;;;;;5013859;28;20505;-77
2022/07/30 09:50:09;;;;;;;3.63;1.70;;;24.10;37.00;;;;;;5013646;28;20034;-78
2022/07/30 09:52:37;;;;;;;7.65;2.75;;;24.40;37.00;;;;;;5014664;28;20033;-77
2022/07/30 09:55:03;;;;;;;9.40;2.72;;;24.40;36.30;;;;;;5015417;28;20026;-76
2022/07/30 09:57:28;;;;;;;16.13;4.10;;;24.30;36.70;;;;;;5015303;28;20045;-77
2022/07/30 09:59:56;;;;;;;3.03;1.42;;;24.40;37.20;;;;;;5017697;28;20033;-76
2022/07/30 10:02:31;;;;;;;7.30;1.73;;;24.60;36.50;;;;;;5024708;28;20053;-73
2022/07/30 10:05:12;;;;;;;2.97;1.67;;;24.50;36.20;;;;;;5035544;28;20042;-74
2022/07/30 10:07:45;;;;;;;6.47;2.03;;;24.70;36.40;;;;;;5033467;28;20028;-75
2022/07/30 10:10:11;;;;;;;3.35;1.70;;;24.90;36.10;;;;;;5033747;28;20022;-75
2022/07/30 10:12:38;;;;;;;5.13;1.70;;;24.90;35.90;;;;;;5036032;28;20090;-75
2022/07/30 10:15:05;;;;;;;3.67;1.50;;;24.90;35.40;;;;;;5035311;28;20030;-75
2022/07/30 10:17:31;;;;;;;4.63;1.88;;;25.00;35.10;;;;;;5037029;28;20037;-75
2022/07/30 10:19:57;;;;;;;3.80;1.67;;;25.20;36.10;;;;;;5035282;28;20030;-76
2022/07/30 10:22:22;;;;;;;5.72;1.95;;;25.60;35.20;;;;;;5022904;28;20048;-76
2022/07/30 10:24:50;;;;;;;6.25;1.50;;;25.40;34.40;;;;;;5014584;28;20029;-75
2022/07/30 10:27:16;;;;;;;6.10;1.80;;;25.20;34.80;;;;;;5014830;28;20022;-75
2022/07/30 10:29:43;;;;;;;4.70;1.80;;;25.20;34.50;;;;;;5014003;28;20052;-75
2022/07/30 10:32:09;;;;;;;3.65;1.25;;;25.20;34.00;;;;;;5013734;28;20022;-75
2022/07/30 10:34:37;;;;;;;3.85;1.50;;;25.20;34.20;;;;;;5013202;28;20509;-75
2022/07/30 10:37:04;;;;;;;4.38;1.27;;;25.30;33.70;;;;;;5012941;28;20034;-75
2022/07/30 10:39:36;;;;;;;4.20;1.67;;;25.10;34.30;;;;;;5012924;28;20496;-75
2022/07/30 10:42:24;;;;;;;4.80;1.65;;;24.90;34.60;;;;;;5012765;28;20394;-76
2022/07/30 10:45:15;;;;;;;4.18;1.73;;;24.80;35.00;;;;;;5020256;28;20056;-75
2022/07/30 10:47:41;;;;;;;3.75;1.45;;;24.80;35.00;;;;;;5012169;28;20466;-75
2022/07/30 10:50:13;;;;;;;4.65;1.35;;;25.00;33.90;;;;;;5012529;28;20037;-75
2022/07/30 10:53:00;;;;;;;2.17;1.50;;;25.40;34.10;;;;;;5012514;28;20025;-75
2022/07/30 10:55:34;;;;;;;4.82;1.52;;;25.80;32.80;;;;;;5012483;28;20044;-76
2022/07/30 10:58:11;;;;;;;1.73;1.38;;;26.20;32.10;;;;;;5011998;28;20053;-75
2022/07/30 11:00:52;;;;;;;2.90;1.55;;;26.20;31.40;;;;;;5012067;28;20083;-76
2022/07/30 11:03:25;;;;;;;3.55;1.08;;;26.00;31.40;;;;;;5012413;28;20026;-76
2022/07/30 11:06:11;;;;;;;4.28;1.80;;;25.70;31.60;;;;;;5012331;28;20389;-76
2022/07/30 11:08:39;;;;;;;2.63;1.13;;;25.60;32.90;;;;;;5012057;28;20083;-76
2022/07/30 11:11:27;;;;;;;3.83;1.30;;;25.80;32.60;;;;;;5012100;28;20018;-75
2022/07/30 11:14:01;;;;;;;2.88;1.77;;;25.70;32.00;;;;;;5021107;28;20034;-75
2022/07/30 11:16:32;;;;;;;6.00;1.60;;;25.50;32.70;;;;;;5011994;28;20127;-75
2022/07/30 11:19:10;;;;;;;2.10;1.20;;;25.60;31.90;;;;;;5010554;28;20030;-76
2022/07/30 11:21:36;;;;;;;2.85;1.33;;;25.30;31.50;;;;;;5012124;28;20471;-75
2022/07/30 11:24:02;;;;;;;4.00;1.25;;;25.40;32.70;;;;;;5011869;28;20029;-76
2022/07/30 11:26:45;;;;;;;1.33;1.23;;;25.80;31.80;;;;;;5011950;28;20045;-75
2022/07/30 11:29:39;;;;;;;1.13;1.00;;;25.90;31.10;;;;;;5010615;28;20026;-75
2022/07/30 11:32:29;;;;;;;2.63;1.25;;;26.00;31.60;;;;;;5011852;28;20104;-75
2022/07/30 11:35:24;;;;;;;2.08;1.50;;;26.30;32.00;;;;;;5011389;28;20018;-75
2022/07/30 11:38:00;;;;;;;2.83;1.02;;;26.80;30.00;;;;;;5011610;28;20036;-76
2022/07/30 11:40:36;;;;;;;3.92;1.30;;;27.00;29.30;;;;;;5011655;28;20026;-77
2022/07/30 11:43:23;;;;;;;4.03;1.13;;;27.00;28.90;;;;;;5011571;28;20042;-74
2022/07/30 11:46:03;;;;;;;2.95;1.23;;;26.60;28.00;;;;;;5011409;28;20033;-74
2022/07/30 11:48:29;;;;;;;5.72;1.27;;;26.30;28.40;;;;;;5011302;28;20351;-77
2022/07/30 11:50:54;;;;;;;3.22;1.00;;;26.20;28.50;;;;;;5011356;28;20029;-77
2022/07/30 11:53:20;;;;;;;2.28;1.10;;;26.30;28.70;;;;;;5011453;28;20053;-77
2022/07/30 11:55:54;;;;;;;3.03;1.20;;;26.20;28.80;;;;;;5011227;28;20042;-77
2022/07/30 11:58:32;;;;;;;2.53;1.00;;;26.60;29.80;;;;;;5010435;28;20061;-76
2022/07/30 12:01:00;;;;;;;4.57;1.35;;;26.80;27.90;;;;;;5013826;28;20285;-76
2022/07/30 12:03:27;;;;;;;2.17;1.25;;;27.00;28.90;;;;;;5012031;28;20026;-77
2022/07/30 12:05:53;;;;;;;3.08;1.10;;;27.20;28.20;;;;;;5011145;28;20490;-76
2022/07/30 12:08:20;;;;;;;4.13;1.60;;;26.90;27.20;;;;;;5010974;28;20094;-76
2022/07/30 12:10:59;;;;;;;2.92;1.10;;;27.00;27.40;;;;;;5010907;28;20034;-76
2022/07/30 12:13:26;;;;;;;4.65;1.30;;;26.90;27.20;;;;;;5011020;28;20026;-76
2022/07/30 12:15:52;;;;;;;3.72;1.05;;;26.80;27.80;;;;;;5011092;28;20043;-75
2022/07/30 12:18:26;;;;;;;3.45;0.98;;;26.70;28.00;;;;;;5010916;28;20602;-76
2022/07/30 12:20:59;;;;;;;1.77;1.20;;;26.70;28.10;;;;;;5010829;28;20533;-76
2022/07/30 12:23:26;;;;;;;1.40;1.10;;;26.40;28.20;;;;;;5010698;28;20033;-76
2022/07/30 12:25:52;;;;;;;2.38;1.02;;;26.40;28.50;;;;;;5010605;28;20551;-76
2022/07/30 12:28:23;;;;;;;0.82;0.82;;;26.20;28.20;;;;;;5010459;28;20125;-76
2022/07/30 12:30:51;;;;;;;1.88;1.00;;;26.20;28.50;;;;;;5010911;28;20416;-75
2022/07/30 12:33:17;;;;;;;1.65;0.77;;;26.40;29.20;;;;;;5010360;28;20093;-76
2022/07/30 12:35:43;;;;;;;1.58;0.98;;;26.60;27.60;;;;;;5010299;28;20137;-76
2022/07/30 12:38:09;;;;;;;2.45;0.90;;;26.60;26.70;;;;;;5010681;28;20109;-76
2022/07/30 12:40:57;;;;;;;2.22;1.00;;;26.70;26.30;;;;;;5010571;28;20065;-75
2022/07/30 12:43:45;;;;;;;2.15;0.93;;;26.60;26.50;;;;;;5010613;28;20082;-76
2022/07/30 12:46:12;;;;;;;1.27;0.70;;;26.50;27.20;;;;;;5010184;28;20091;-77
2022/07/30 12:48:48;;;;;;;1.05;0.88;;;26.10;28.30;;;;;;5010294;28;20355;-76
2022/07/30 12:51:13;;;;;;;2.78;1.20;;;25.90;28.90;;;;;;5009174;28;20116;-77
2022/07/30 12:53:39;;;;;;;2.08;0.90;;;26.00;29.30;;;;;;5010515;28;20056;-77